Time;durP1;ratioP1;P1;durP2;ratioP2;P2;SDS_P1;SDS_P2;PMS_P1;PMS_P2;Temp;Humidity;BMP_temperature;BMP_pressure;BME280_temperature;BME280_humidity;BME280_pressure;Samples;Min_cycle;Max_cycle;Signal;HPM_P1;HPM_P2
2022/03/31 00:00:25;;;;;;;6.03;4.80;;;8.40;65.00;;;;;;5007864;28;20096;-59
2022/03/31 00:02:51;;;;;;;8.35;5.18;;;8.40;65.20;;;;;;5007195;28;20420;-64
2022/03/31 00:05:17;;;;;;;6.28;5.10;;;8.40;65.40;;;;;;5008052;28;20049;-60
2022/03/31 00:07:57;;;;;;;6.85;4.93;;;8.40;65.70;;;;;;5039229;28;20037;-59
2022/03/31 00:10:30;;;;;;;6.22;5.10;;;8.30;65.70;;;;;;5006750;28;20030;-60
2022/03/31 00:12:57;;;;;;;6.15;4.78;;;8.30;65.80;;;;;;5007388;28;20030;-60
2022/03/31 00:15:25;;;;;;;5.72;5.10;;;8.20;65.80;;;;;;5008553;28;20054;-65
2022/03/31 00:17:51;;;;;;;6.10;5.43;;;8.20;66.00;;;;;;5007757;28;20034;-65
2022/03/31 00:20:17;;;;;;;6.40;5.50;;;8.10;66.10;;;;;;5008255;28;20510;-57
2022/03/31 00:22:42;;;;;;;5.95;5.30;;;8.10;66.50;;;;;;5011044;28;20635;-58
2022/03/31 00:25:10;;;;;;;6.45;5.38;;;8.10;66.50;;;;;;5011199;28;20078;-65
2022/03/31 00:27:38;;;;;;;6.43;5.72;;;8.00;66.60;;;;;;5011766;28;20396;-63
2022/03/31 00:30:05;;;;;;;6.88;5.78;;;8.00;66.80;;;;;;5011080;28;20410;-64
2022/03/31 00:32:32;;;;;;;6.75;5.50;;;8.00;67.10;;;;;;5011828;28;20026;-63
2022/03/31 00:34:58;;;;;;;7.45;5.13;;;8.00;67.10;;;;;;5011382;28;20042;-64
2022/03/31 00:37:23;;;;;;;6.82;5.82;;;7.90;67.10;;;;;;5011993;28;20033;-63
2022/03/31 00:39:49;;;;;;;8.85;6.65;;;7.90;67.30;;;;;;5010454;28;20030;-59
2022/03/31 00:42:16;;;;;;;8.15;5.88;;;7.90;67.50;;;;;;5012050;28;20068;-59
2022/03/31 00:44:42;;;;;;;6.90;5.40;;;7.90;67.50;;;;;;5011588;28;20401;-64
2022/03/31 00:47:08;;;;;;;6.18;5.57;;;7.90;67.60;;;;;;5010465;28;20361;-63
2022/03/31 00:49:34;;;;;;;8.05;5.57;;;7.80;67.60;;;;;;5005304;28;20038;-64
2022/03/31 00:52:00;;;;;;;6.80;6.10;;;7.80;67.70;;;;;;5041384;28;20563;-64
2022/03/31 00:54:27;;;;;;;8.07;6.28;;;7.70;67.90;;;;;;5010820;28;20045;-64
2022/03/31 00:56:53;;;;;;;10.32;6.30;;;7.80;68.20;;;;;;5008709;28;20493;-59
2022/03/31 00:59:19;;;;;;;7.15;6.22;;;7.80;68.10;;;;;;5010011;28;20077;-64
2022/03/31 01:01:47;;;;;;;7.07;6.38;;;7.80;68.20;;;;;;5010332;28;20076;-64
2022/03/31 01:04:13;;;;;;;6.78;5.88;;;7.70;68.40;;;;;;5011404;28;20034;-59
2022/03/31 01:06:43;;;;;;;6.78;6.00;;;7.70;68.30;;;;;;5011327;28;20046;-57
2022/03/31 01:09:08;;;;;;;7.53;6.00;;;7.70;68.40;;;;;;5010418;28;20034;-58
2022/03/31 01:11:34;;;;;;;8.23;6.05;;;7.60;68.40;;;;;;5010309;28;20342;-63
2022/03/31 01:14:00;;;;;;;8.32;6.32;;;7.60;68.70;;;;;;5010967;28;20551;-63
2022/03/31 01:16:28;;;;;;;7.80;5.88;;;7.60;68.90;;;;;;5010648;28;20073;-63
2022/03/31 01:18:54;;;;;;;10.77;5.80;;;7.50;68.90;;;;;;5010500;28;20072;-60
2022/03/31 01:21:19;;;;;;;6.40;5.80;;;7.50;68.90;;;;;;5009893;28;20054;-59
2022/03/31 01:23:46;;;;;;;6.63;5.70;;;7.50;69.10;;;;;;5010222;28;20556;-59
2022/03/31 01:26:12;;;;;;;7.13;6.35;;;7.50;69.10;;;;;;5011002;28;20037;-64
2022/03/31 01:28:41;;;;;;;8.45;6.25;;;7.50;69.30;;;;;;5010894;28;20030;-64
2022/03/31 01:31:07;;;;;;;6.85;6.13;;;7.50;69.30;;;;;;5006925;28;20440;-64
2022/03/31 01:33:33;;;;;;;8.68;5.72;;;7.40;69.30;;;;;;5008418;28;20056;-59
2022/03/31 01:35:59;;;;;;;6.85;5.53;;;7.40;69.40;;;;;;5005501;28;20058;-58
2022/03/31 01:38:25;;;;;;;5.95;5.00;;;7.40;69.50;;;;;;5004910;28;20428;-57
2022/03/31 01:40:51;;;;;;;7.38;4.80;;;7.40;69.50;;;;;;5009612;28;20034;-59
2022/03/31 01:43:17;;;;;;;5.50;4.78;;;7.40;69.70;;;;;;5008961;28;20516;-58
2022/03/31 01:45:43;;;;;;;5.15;4.60;;;7.40;69.70;;;;;;5009641;28;20033;-59
2022/03/31 01:48:09;;;;;;;4.50;4.05;;;7.40;69.70;;;;;;5004927;28;20149;-59
2022/03/31 01:50:35;;;;;;;6.93;4.72;;;7.30;69.60;;;;;;5005071;28;20400;-59
2022/03/31 01:53:01;;;;;;;5.43;4.03;;;7.30;69.70;;;;;;5008958;28;20117;-58
2022/03/31 01:55:27;;;;;;;5.20;3.78;;;7.40;69.50;;;;;;5008558;28;20057;-59
2022/03/31 01:57:52;;;;;;;3.40;2.90;;;7.40;69.50;;;;;;5007494;28;20694;-63
2022/03/31 02:00:18;;;;;;;3.47;3.17;;;7.30;69.40;;;;;;5008778;28;20046;-64
2022/03/31 02:02:44;;;;;;;4.07;3.20;;;7.30;69.50;;;;;;5010323;28;20516;-59
2022/03/31 02:05:11;;;;;;;3.00;2.63;;;7.20;69.40;;;;;;5009822;28;20080;-64
2022/03/31 02:07:38;;;;;;;2.95;2.65;;;7.20;69.40;;;;;;5010544;28;20113;-64
2022/03/31 02:10:07;;;;;;;3.13;2.58;;;7.20;69.50;;;;;;5040365;28;20048;-63
2022/03/31 02:12:34;;;;;;;2.67;2.40;;;7.10;69.50;;;;;;5009819;28;20037;-64
2022/03/31 02:15:04;;;;;;;3.13;2.50;;;7.10;69.60;;;;;;5008449;28;20527;-59
2022/03/31 02:17:30;;;;;;;2.60;2.40;;;7.00;69.60;;;;;;5009977;28;20026;-59
2022/03/31 02:19:56;;;;;;;3.35;2.53;;;6.90;69.80;;;;;;5009340;28;20042;-58
2022/03/31 02:22:23;;;;;;;2.85;2.58;;;7.00;69.80;;;;;;5009324;28;20026;-59
2022/03/31 02:24:48;;;;;;;2.50;2.22;;;6.90;69.80;;;;;;5009827;28;20528;-59
2022/03/31 02:27:14;;;;;;;2.42;2.22;;;6.90;69.80;;;;;;5008190;28;20113;-58
2022/03/31 02:29:40;;;;;;;3.90;2.30;;;6.90;70.00;;;;;;4999846;28;20057;-59
2022/03/31 02:32:09;;;;;;;3.28;2.63;;;6.80;70.00;;;;;;5009041;28;20034;-59
2022/03/31 02:34:35;;;;;;;2.88;2.42;;;6.80;70.00;;;;;;5009669;28;20057;-65
2022/03/31 02:37:02;;;;;;;3.30;2.28;;;6.80;70.10;;;;;;5040187;28;20030;-57
2022/03/31 02:39:29;;;;;;;2.30;2.10;;;6.70;70.10;;;;;;5009005;28;20065;-58
2022/03/31 02:41:57;;;;;;;2.40;2.08;;;6.70;70.10;;;;;;5008605;28;20026;-64
2022/03/31 02:44:24;;;;;;;2.38;2.05;;;6.70;70.20;;;;;;5006407;28;20041;-64
2022/03/31 02:46:51;;;;;;;2.13;1.95;;;6.60;70.20;;;;;;5008075;28;20076;-64
2022/03/31 02:49:17;;;;;;;1.90;1.77;;;6.60;70.30;;;;;;5008495;28;20038;-64
2022/03/31 02:51:43;;;;;;;2.13;1.95;;;6.60;70.30;;;;;;5008643;28;20033;-64
2022/03/31 02:56:53;;;;;;;2.40;1.90;;;6.50;70.30;;;;;;5009517;28;20057;-63
2022/03/31 02:59:19;;;;;;;1.80;1.70;;;6.50;70.40;;;;;;5006782;28;20048;-64
2022/03/31 03:01:45;;;;;;;2.00;1.80;;;6.50;70.40;;;;;;5009643;28;20117;-64
2022/03/31 03:04:11;;;;;;;2.03;1.60;;;6.50;70.50;;;;;;5008764;28;20450;-63
2022/03/31 03:06:37;;;;;;;1.92;1.80;;;6.50;70.30;;;;;;5009119;28;20034;-64
2022/03/31 03:09:04;;;;;;;1.92;1.58;;;6.50;70.40;;;;;;5007959;28;20129;-60
2022/03/31 03:11:30;;;;;;;2.70;1.80;;;6.40;70.40;;;;;;5008450;28;20037;-59
2022/03/31 03:13:55;;;;;;;1.63;1.52;;;6.40;70.40;;;;;;5008676;28;20382;-65
2022/03/31 03:16:22;;;;;;;1.90;1.70;;;6.40;70.50;;;;;;5009695;28;20053;-64
2022/03/31 03:18:47;;;;;;;1.73;1.50;;;6.30;70.50;;;;;;5008574;28;20048;-64
2022/03/31 03:21:13;;;;;;;1.58;1.40;;;6.30;70.60;;;;;;5006161;28;20025;-64
2022/03/31 03:23:39;;;;;;;1.48;1.38;;;6.30;70.70;;;;;;4999125;28;20041;-64
2022/03/31 03:26:06;;;;;;;1.65;1.55;;;6.30;70.70;;;;;;5008357;28;20454;-64
2022/03/31 03:28:35;;;;;;;1.70;1.60;;;6.30;70.80;;;;;;5000741;28;20034;-64
2022/03/31 03:31:02;;;;;;;1.50;1.40;;;6.20;70.90;;;;;;5007853;28;20099;-59
2022/03/31 03:33:28;;;;;;;1.85;1.70;;;6.20;70.90;;;;;;5007570;28;20034;-58
2022/03/31 03:35:54;;;;;;;1.70;1.60;;;6.30;71.10;;;;;;5006356;28;20040;-59
2022/03/31 03:38:19;;;;;;;1.60;1.50;;;6.20;71.10;;;;;;5007870;28;20114;-59
2022/03/31 03:40:45;;;;;;;1.70;1.30;;;6.20;71.10;;;;;;5005882;28;20081;-59
2022/03/31 03:43:12;;;;;;;1.70;1.60;;;6.20;71.00;;;;;;5007404;28;20033;-59
2022/03/31 03:45:38;;;;;;;1.40;1.30;;;6.20;71.10;;;;;;5006927;28;20072;-60
2022/03/31 03:48:06;;;;;;;1.58;1.48;;;6.20;71.00;;;;;;5006889;28;20034;-59
2022/03/31 03:50:35;;;;;;;1.40;1.30;;;6.10;71.10;;;;;;5006569;28;20083;-59
2022/03/31 03:53:04;;;;;;;1.58;1.48;;;6.10;71.20;;;;;;5008273;28;20386;-60
2022/03/31 03:55:31;;;;;;;1.63;1.48;;;6.00;71.30;;;;;;5007878;28;20030;-64
2022/03/31 03:57:56;;;;;;;1.45;1.35;;;6.00;71.40;;;;;;5026844;28;20136;-64
2022/03/31 04:00:22;;;;;;;1.63;1.40;;;6.00;71.60;;;;;;5011880;28;20165;-64
2022/03/31 04:02:48;;;;;;;1.70;1.50;;;6.00;71.70;;;;;;5011885;28;20040;-64
2022/03/31 04:05:14;;;;;;;1.67;1.52;;;6.00;71.80;;;;;;5010358;28;20030;-64
2022/03/31 04:07:40;;;;;;;2.13;1.92;;;6.00;71.80;;;;;;5012161;28;20117;-60
2022/03/31 04:10:09;;;;;;;1.70;1.60;;;6.00;71.90;;;;;;5010664;28;20084;-58
2022/03/31 04:12:34;;;;;;;1.98;1.60;;;6.00;71.90;;;;;;5010013;28;20053;-59
2022/03/31 04:15:02;;;;;;;2.15;1.73;;;5.90;72.00;;;;;;5010717;28;20026;-59
2022/03/31 04:17:28;;;;;;;1.98;1.60;;;5.90;72.20;;;;;;5012473;28;20669;-59
2022/03/31 04:19:54;;;;;;;2.65;1.77;;;5.80;72.40;;;;;;5010728;28;20014;-59
2022/03/31 04:22:21;;;;;;;1.63;1.52;;;5.80;72.50;;;;;;5010172;28;20029;-64
2022/03/31 04:24:47;;;;;;;1.77;1.48;;;5.80;72.70;;;;;;5007426;28;20021;-64
2022/03/31 04:27:13;;;;;;;2.38;1.80;;;5.80;72.70;;;;;;5011467;28;20434;-64
2022/03/31 04:29:39;;;;;;;1.60;1.50;;;5.80;72.90;;;;;;5011031;28;20037;-64
2022/03/31 04:32:05;;;;;;;1.40;1.30;;;5.80;72.80;;;;;;5011236;28;20481;-64
2022/03/31 04:34:31;;;;;;;1.27;1.20;;;5.80;72.80;;;;;;5008789;28;20488;-64
2022/03/31 04:36:56;;;;;;;1.42;1.33;;;5.70;72.60;;;;;;5011004;28;20037;-64
2022/03/31 04:39:22;;;;;;;1.45;1.35;;;5.70;72.50;;;;;;5010843;28;20029;-64
2022/03/31 04:41:48;;;;;;;1.30;1.20;;;5.70;72.60;;;;;;5010741;28;20038;-63
2022/03/31 04:44:14;;;;;;;1.00;1.00;;;5.70;72.60;;;;;;5043064;28;20568;-64
2022/03/31 04:46:40;;;;;;;1.33;1.23;;;5.60;72.60;;;;;;5012162;28;20642;-63
2022/03/31 04:49:06;;;;;;;1.40;1.30;;;5.60;72.80;;;;;;5011524;28;20069;-64
2022/03/31 04:51:32;;;;;;;1.10;1.00;;;5.60;72.80;;;;;;5011348;28;20048;-64
2022/03/31 04:53:57;;;;;;;1.13;1.02;;;5.60;72.70;;;;;;5011036;28;20040;-64
2022/03/31 04:56:23;;;;;;;1.13;1.10;;;5.60;72.60;;;;;;5011613;28;20140;-63
2022/03/31 04:58:49;;;;;;;0.90;0.90;;;5.60;72.60;;;;;;5020455;28;20049;-64
2022/03/31 05:01:16;;;;;;;1.23;1.13;;;5.60;72.70;;;;;;5000180;28;20037;-64
2022/03/31 05:03:42;;;;;;;1.40;1.30;;;5.60;72.70;;;;;;5011149;28;20465;-63
2022/03/31 05:06:08;;;;;;;1.20;1.10;;;5.60;72.70;;;;;;5011046;28;20034;-63
2022/03/31 05:08:34;;;;;;;1.50;1.30;;;5.60;72.70;;;;;;5010418;28;20048;-59
2022/03/31 05:10:59;;;;;;;1.45;1.35;;;5.60;72.80;;;;;;5010164;28;20428;-60
2022/03/31 05:13:25;;;;;;;1.40;1.20;;;5.60;72.80;;;;;;5007659;28;20211;-59
2022/03/31 05:15:51;;;;;;;1.38;1.27;;;5.50;72.70;;;;;;4994483;28;20034;-59
2022/03/31 05:18:18;;;;;;;1.55;1.40;;;5.50;72.90;;;;;;5005865;28;20525;-59
2022/03/31 05:20:43;;;;;;;1.50;1.40;;;5.50;72.90;;;;;;4999488;28;20037;-59
2022/03/31 05:23:11;;;;;;;1.52;1.42;;;5.50;72.80;;;;;;5008445;28;20034;-63
2022/03/31 05:25:37;;;;;;;1.50;1.40;;;5.50;72.80;;;;;;5008819;28;20477;-63
2022/03/31 05:28:03;;;;;;;1.60;1.50;;;5.50;73.00;;;;;;5008778;28;20374;-64
2022/03/31 05:30:28;;;;;;;2.25;1.65;;;5.50;73.00;;;;;;5010106;28;20034;-64
2022/03/31 05:32:54;;;;;;;1.85;1.40;;;5.40;73.00;;;;;;5040661;28;20520;-64
2022/03/31 05:35:20;;;;;;;1.50;1.40;;;5.40;73.10;;;;;;5009822;28;20038;-64
2022/03/31 05:37:47;;;;;;;1.70;1.60;;;5.40;73.20;;;;;;5009428;28;20034;-64
2022/03/31 05:40:14;;;;;;;1.67;1.58;;;5.30;73.20;;;;;;5009386;28;20105;-64
2022/03/31 05:42:40;;;;;;;1.83;1.73;;;5.30;73.30;;;;;;5009556;28;20397;-63
2022/03/31 05:45:09;;;;;;;1.70;1.60;;;5.30;73.30;;;;;;5010189;28;20030;-60
2022/03/31 05:47:36;;;;;;;1.60;1.50;;;5.30;73.30;;;;;;5010254;28;20026;-60
2022/03/31 05:50:03;;;;;;;1.95;1.85;;;5.20;73.30;;;;;;5010168;28;20532;-63
2022/03/31 05:52:29;;;;;;;1.73;1.63;;;5.20;73.40;;;;;;5009882;28;20519;-63
2022/03/31 05:54:55;;;;;;;1.75;1.65;;;5.20;73.50;;;;;;5009636;28;20030;-59
2022/03/31 05:57:20;;;;;;;1.60;1.50;;;5.20;73.60;;;;;;5010220;28;20401;-59
2022/03/31 05:59:46;;;;;;;1.58;1.48;;;5.20;73.50;;;;;;5010159;28;20050;-60
2022/03/31 06:02:12;;;;;;;1.70;1.60;;;5.10;73.50;;;;;;5009414;28;20037;-60
2022/03/31 06:04:39;;;;;;;1.55;1.45;;;5.10;73.60;;;;;;5009574;28;20265;-59
2022/03/31 06:07:05;;;;;;;1.73;1.60;;;5.10;73.70;;;;;;5010433;28;20065;-59
2022/03/31 06:09:31;;;;;;;2.00;1.40;;;5.10;73.70;;;;;;5008428;28;20084;-59
2022/03/31 06:11:56;;;;;;;1.45;1.35;;;5.00;73.70;;;;;;5010098;28;20459;-59
2022/03/31 06:14:22;;;;;;;1.25;1.17;;;5.00;73.80;;;;;;5023196;28;20045;-60
2022/03/31 06:16:49;;;;;;;1.40;1.30;;;5.00;73.70;;;;;;5010473;28;20041;-60
2022/03/31 06:19:15;;;;;;;1.52;1.42;;;4.90;73.80;;;;;;5008884;28;20072;-60
2022/03/31 06:21:41;;;;;;;1.30;1.20;;;4.90;73.90;;;;;;5008025;28;20030;-60
2022/03/31 06:24:07;;;;;;;1.20;1.10;;;4.90;73.90;;;;;;5007395;28;20374;-59
2022/03/31 06:26:33;;;;;;;1.20;1.10;;;4.90;74.20;;;;;;5009188;28;20041;-59
2022/03/31 06:29:00;;;;;;;1.10;1.00;;;4.90;74.90;;;;;;5009391;28;20026;-60
2022/03/31 06:31:25;;;;;;;1.38;1.27;;;4.90;74.20;;;;;;5009592;28;20401;-59
2022/03/31 06:33:52;;;;;;;0.98;0.95;;;4.90;74.40;;;;;;5009396;28;20034;-61
2022/03/31 06:36:18;;;;;;;0.88;0.88;;;4.90;74.40;;;;;;5010008;28;20144;-62
2022/03/31 06:38:43;;;;;;;0.88;0.88;;;4.90;74.50;;;;;;5008799;28;20048;-60
2022/03/31 06:41:17;;;;;;;0.80;0.80;;;4.90;74.50;;;;;;5009877;28;20466;-60
2022/03/31 06:43:45;;;;;;;0.90;0.90;;;4.90;74.50;;;;;;5022836;28;20641;-64
2022/03/31 06:46:12;;;;;;;0.90;0.90;;;4.90;74.50;;;;;;5009650;28;20469;-59
2022/03/31 06:48:41;;;;;;;0.98;0.98;;;4.90;74.50;;;;;;5011140;28;20025;-64
2022/03/31 06:51:08;;;;;;;0.75;0.75;;;4.90;74.60;;;;;;5018497;28;20037;-63
2022/03/31 06:53:37;;;;;;;0.90;0.90;;;4.90;74.70;;;;;;5014559;28;20046;-59
2022/03/31 06:56:07;;;;;;;1.20;1.10;;;4.90;74.80;;;;;;5008624;28;20044;-59
2022/03/31 06:58:33;;;;;;;1.13;1.02;;;4.90;74.80;;;;;;5008989;28;20365;-59
2022/03/31 07:00:59;;;;;;;0.93;0.93;;;4.90;74.80;;;;;;5008513;28;20025;-60
2022/03/31 07:03:25;;;;;;;2.25;0.90;;;4.90;74.70;;;;;;5006719;28;20409;-60
2022/03/31 07:05:51;;;;;;;0.98;0.93;;;4.90;74.80;;;;;;5001928;28;20025;-64
2022/03/31 07:08:18;;;;;;;1.00;1.00;;;4.90;75.00;;;;;;5008751;28;20033;-63
2022/03/31 07:10:44;;;;;;;1.13;1.02;;;4.90;75.00;;;;;;5006105;28;20052;-64
2022/03/31 07:13:10;;;;;;;0.93;0.93;;;4.90;75.00;;;;;;5008678;28;20579;-64
2022/03/31 07:15:36;;;;;;;1.00;1.00;;;4.90;75.10;;;;;;5008152;28;20400;-64
2022/03/31 07:18:05;;;;;;;1.05;1.02;;;4.90;75.10;;;;;;5007310;28;20042;-64
2022/03/31 07:20:32;;;;;;;1.30;1.20;;;5.00;75.20;;;;;;5012175;28;20026;-64
2022/03/31 07:22:58;;;;;;;1.13;1.02;;;5.00;75.20;;;;;;4997965;28;20030;-64
2022/03/31 07:25:24;;;;;;;1.33;1.23;;;5.00;75.10;;;;;;5007741;28;20014;-62
2022/03/31 07:27:50;;;;;;;1.60;1.30;;;5.00;75.30;;;;;;5008812;28;20038;-62
2022/03/31 07:30:18;;;;;;;1.30;1.20;;;5.00;75.30;;;;;;5008197;28;20036;-63
2022/03/31 07:32:47;;;;;;;2.17;1.60;;;5.00;75.40;;;;;;5011896;28;20164;-62
2022/03/31 07:35:13;;;;;;;1.33;1.23;;;4.90;75.40;;;;;;4993767;28;20042;-63
2022/03/31 07:37:39;;;;;;;1.65;1.55;;;4.90;75.40;;;;;;5013231;28;20038;-63
2022/03/31 07:40:05;;;;;;;1.77;1.67;;;4.90;75.40;;;;;;5011311;28;20499;-63
2022/03/31 07:42:31;;;;;;;1.67;1.58;;;5.00;75.60;;;;;;5011203;28;20053;-60
2022/03/31 07:44:56;;;;;;;1.88;1.75;;;5.00;75.70;;;;;;5012343;28;20478;-59
2022/03/31 07:47:22;;;;;;;1.70;1.60;;;5.00;75.70;;;;;;5012264;28;20037;-63
2022/03/31 07:49:49;;;;;;;1.55;1.45;;;5.00;75.70;;;;;;5012729;28;20240;-63
2022/03/31 07:52:15;;;;;;;2.63;1.90;;;5.00;75.90;;;;;;5010856;28;20026;-63
2022/03/31 07:54:42;;;;;;;1.83;1.73;;;5.10;76.00;;;;;;5011845;28;20029;-63
2022/03/31 07:57:08;;;;;;;1.55;1.45;;;5.00;75.90;;;;;;5012626;28;20029;-63
2022/03/31 07:59:34;;;;;;;1.35;1.25;;;5.10;76.00;;;;;;5012297;28;20164;-62
2022/03/31 08:02:03;;;;;;;1.85;1.75;;;5.10;75.90;;;;;;5009297;28;20486;-63
2022/03/31 08:04:28;;;;;;;2.00;1.90;;;5.10;75.80;;;;;;5011923;28;20038;-63
2022/03/31 08:06:55;;;;;;;1.70;1.60;;;5.10;75.90;;;;;;5011872;28;20041;-62
2022/03/31 08:09:21;;;;;;;1.40;1.30;;;5.00;76.00;;;;;;5010316;28;20477;-63
2022/03/31 08:11:49;;;;;;;1.90;1.80;;;5.00;76.70;;;;;;5010487;28;20096;-62
2022/03/31 08:14:19;;;;;;;1.63;1.52;;;5.00;76.10;;;;;;5011521;28;20061;-59
2022/03/31 08:16:49;;;;;;;1.77;1.67;;;5.00;75.90;;;;;;5007432;28;20038;-59
2022/03/31 08:19:16;;;;;;;1.70;1.60;;;5.00;76.10;;;;;;5001515;28;20022;-63
2022/03/31 08:21:47;;;;;;;1.50;1.40;;;5.00;76.10;;;;;;5006342;28;20100;-60
2022/03/31 08:24:14;;;;;;;1.95;1.85;;;5.00;76.20;;;;;;5002998;28;20122;-59
2022/03/31 08:26:41;;;;;;;2.15;2.05;;;5.00;76.40;;;;;;5011375;28;20033;-60
2022/03/31 08:29:08;;;;;;;2.10;2.00;;;5.00;76.40;;;;;;5010113;28;20096;-59
2022/03/31 08:31:34;;;;;;;2.20;2.10;;;5.00;76.60;;;;;;5011061;28;20443;-60
2022/03/31 08:34:00;;;;;;;1.88;1.77;;;5.00;76.80;;;;;;5008638;28;20034;-61
2022/03/31 08:36:26;;;;;;;1.95;1.85;;;5.00;76.80;;;;;;5011032;28;20489;-62
2022/03/31 08:38:52;;;;;;;2.20;2.10;;;5.00;76.70;;;;;;5006812;28;20045;-64
2022/03/31 08:41:22;;;;;;;2.60;2.40;;;5.00;76.80;;;;;;5008349;28;20026;-64
2022/03/31 08:43:49;;;;;;;2.08;1.98;;;5.00;76.80;;;;;;5004305;28;20030;-62
2022/03/31 08:46:15;;;;;;;2.60;2.40;;;5.00;76.90;;;;;;5007465;28;20117;-62
2022/03/31 08:48:42;;;;;;;2.42;2.22;;;5.00;76.90;;;;;;5010817;28;20037;-62
2022/03/31 08:51:07;;;;;;;2.00;1.90;;;5.00;77.00;;;;;;5010163;28;20145;-62
2022/03/31 08:53:33;;;;;;;2.50;2.30;;;5.00;77.00;;;;;;5010049;28;20536;-62
2022/03/31 08:55:59;;;;;;;2.40;2.20;;;5.00;77.10;;;;;;5008841;28;20088;-62
2022/03/31 08:58:25;;;;;;;2.50;2.30;;;5.00;77.00;;;;;;5009885;28;20391;-63
2022/03/31 09:00:52;;;;;;;2.50;2.30;;;5.00;77.10;;;;;;5010205;28;20077;-59
2022/03/31 09:03:18;;;;;;;2.72;2.35;;;5.00;77.20;;;;;;5001312;28;20554;-59
2022/03/31 09:05:54;;;;;;;2.40;2.20;;;5.10;77.20;;;;;;5006811;28;20462;-58
2022/03/31 09:08:20;;;;;;;2.10;1.90;;;5.00;77.10;;;;;;5009004;28;20371;-58
2022/03/31 09:10:49;;;;;;;2.70;2.50;;;5.00;77.10;;;;;;5009236;28;20036;-59
2022/03/31 09:13:22;;;;;;;2.25;2.15;;;5.00;77.30;;;;;;5005564;28;20077;-59
2022/03/31 09:15:58;;;;;;;2.20;2.08;;;5.00;77.20;;;;;;5003087;28;20136;-59
2022/03/31 09:18:26;;;;;;;2.75;2.55;;;5.10;77.90;;;;;;5006939;28;20029;-63
2022/03/31 09:20:55;;;;;;;2.50;2.30;;;5.10;77.40;;;;;;5008934;28;20022;-62
2022/03/31 09:23:24;;;;;;;2.28;2.08;;;5.10;77.30;;;;;;5007292;28;20487;-62
2022/03/31 09:25:51;;;;;;;3.65;2.67;;;5.10;77.20;;;;;;5001149;28;20032;-62
2022/03/31 09:28:22;;;;;;;2.60;2.40;;;5.00;77.20;;;;;;5006366;28;20034;-59
2022/03/31 09:30:57;;;;;;;2.80;2.60;;;5.00;77.30;;;;;;5001136;28;20029;-63
2022/03/31 09:33:41;;;;;;;2.42;2.22;;;5.00;77.30;;;;;;4996873;28;20034;-63
2022/03/31 09:36:11;;;;;;;2.38;2.20;;;5.00;77.40;;;;;;5005334;28;20503;-63
2022/03/31 09:38:38;;;;;;;2.70;2.50;;;5.00;77.00;;;;;;5005316;28;20497;-63
2022/03/31 09:41:28;;;;;;;2.50;2.30;;;5.00;77.20;;;;;;5006363;28;20033;-63
2022/03/31 09:43:56;;;;;;;2.75;2.55;;;5.00;77.40;;;;;;5004395;28;20025;-60
2022/03/31 09:46:28;;;;;;;2.70;2.50;;;5.00;77.50;;;;;;4998293;28;20018;-60
2022/03/31 09:48:55;;;;;;;2.63;2.42;;;5.00;77.60;;;;;;5008004;28;20036;-59
2022/03/31 09:51:23;;;;;;;2.95;2.70;;;5.00;77.50;;;;;;5017134;28;20121;-60
2022/03/31 09:53:50;;;;;;;2.63;2.42;;;5.00;77.40;;;;;;5039647;28;20536;-59
2022/03/31 09:56:18;;;;;;;2.60;2.40;;;5.00;77.30;;;;;;5009759;28;20037;-59
2022/03/31 09:58:46;;;;;;;2.70;2.50;;;5.00;77.40;;;;;;5009346;28;20075;-59
2022/03/31 10:01:14;;;;;;;2.45;2.25;;;5.00;77.20;;;;;;5006397;28;20513;-63
2022/03/31 10:03:40;;;;;;;3.00;2.80;;;5.00;77.10;;;;;;5007156;28;20123;-63
2022/03/31 10:06:07;;;;;;;2.60;2.40;;;5.00;77.10;;;;;;5013641;28;20073;-63
2022/03/31 10:08:37;;;;;;;2.70;2.50;;;5.00;77.10;;;;;;5008939;28;20021;-63
2022/03/31 10:11:04;;;;;;;2.58;2.38;;;5.00;77.70;;;;;;5007539;28;20057;-63
2022/03/31 10:13:38;;;;;;;3.60;2.70;;;5.00;77.10;;;;;;5003589;28;20057;-63
2022/03/31 10:16:09;;;;;;;2.53;2.33;;;5.00;77.20;;;;;;5007366;28;20144;-63
2022/03/31 10:18:36;;;;;;;2.50;2.30;;;5.00;77.20;;;;;;5015101;28;20037;-63
2022/03/31 10:21:02;;;;;;;2.40;2.20;;;5.00;77.00;;;;;;5016164;28;20624;-64
2022/03/31 10:26:27;;;;;;;2.38;2.17;;;5.00;76.80;;;;;;5008429;28;20110;-63
2022/03/31 10:29:00;;;;;;;2.85;2.65;;;5.00;76.90;;;;;;5007498;28;20394;-60
2022/03/31 10:31:40;;;;;;;2.38;2.17;;;4.90;77.00;;;;;;5006961;28;20917;-60
2022/03/31 10:34:07;;;;;;;2.38;2.20;;;5.00;77.10;;;;;;5008848;28;20082;-60
2022/03/31 10:36:43;;;;;;;2.20;2.05;;;5.00;77.00;;;;;;5008201;28;20042;-60
2022/03/31 10:39:23;;;;;;;2.22;2.03;;;5.00;77.00;;;;;;5005263;28;20037;-60
2022/03/31 10:42:03;;;;;;;2.10;1.90;;;5.00;76.90;;;;;;5007065;28;20105;-61
2022/03/31 10:44:29;;;;;;;1.98;1.88;;;5.00;77.00;;;;;;5005183;28;20030;-60
2022/03/31 10:47:03;;;;;;;2.45;2.25;;;5.00;77.00;;;;;;5007771;28;20034;-60
2022/03/31 10:49:30;;;;;;;2.00;1.90;;;5.00;77.00;;;;;;5006917;28;20038;-60
2022/03/31 10:51:57;;;;;;;2.10;2.00;;;5.00;77.00;;;;;;5007521;28;20722;-63
2022/03/31 10:54:33;;;;;;;1.77;1.67;;;5.00;77.00;;;;;;4988461;28;20030;-64
2022/03/31 10:57:01;;;;;;;1.77;1.65;;;5.00;76.90;;;;;;5001741;28;20034;-63
2022/03/31 10:59:27;;;;;;;2.08;1.90;;;5.00;76.90;;;;;;5004760;28;20042;-62
2022/03/31 11:01:53;;;;;;;1.80;1.70;;;5.00;77.10;;;;;;5007820;28;20477;-62
2022/03/31 11:04:19;;;;;;;1.73;1.63;;;5.10;77.20;;;;;;5002524;28;20029;-63
2022/03/31 11:06:53;;;;;;;1.60;1.50;;;5.10;77.30;;;;;;5004582;28;20084;-63
2022/03/31 11:09:26;;;;;;;1.65;1.55;;;5.10;77.30;;;;;;5006738;28;20061;-59
2022/03/31 11:11:53;;;;;;;1.65;1.55;;;5.10;77.30;;;;;;5006270;28;20041;-59
2022/03/31 11:14:19;;;;;;;1.65;1.55;;;5.10;77.30;;;;;;5011588;28;20512;-59
2022/03/31 11:16:45;;;;;;;1.77;1.67;;;5.10;77.10;;;;;;5006978;28;20049;-59
2022/03/31 11:19:12;;;;;;;2.13;2.03;;;5.10;77.20;;;;;;5004862;28;20116;-63
2022/03/31 11:21:45;;;;;;;1.73;1.63;;;5.10;77.30;;;;;;5008157;28;20026;-60
2022/03/31 11:24:11;;;;;;;1.77;1.67;;;5.10;77.30;;;;;;5006471;28;20461;-60
2022/03/31 11:26:44;;;;;;;1.60;1.50;;;5.20;77.40;;;;;;5007441;28;20065;-63
2022/03/31 11:29:11;;;;;;;1.52;1.42;;;5.20;77.30;;;;;;5007320;28;20038;-60
2022/03/31 11:31:51;;;;;;;1.80;1.70;;;5.20;77.30;;;;;;5007486;28;20026;-60
2022/03/31 11:34:21;;;;;;;1.65;1.55;;;5.20;77.40;;;;;;5007950;28;20049;-60
2022/03/31 11:36:47;;;;;;;1.48;1.38;;;5.20;77.50;;;;;;5007771;28;20436;-60
2022/03/31 11:39:13;;;;;;;1.35;1.25;;;5.20;77.60;;;;;;5007166;28;20038;-60
2022/03/31 11:41:41;;;;;;;1.55;1.45;;;5.20;77.70;;;;;;5005003;28;20030;-60
2022/03/31 11:44:08;;;;;;;1.52;1.42;;;5.20;77.60;;;;;;5005105;28;20495;-60
2022/03/31 11:46:47;;;;;;;1.50;1.40;;;5.30;77.70;;;;;;4998179;28;20117;-59
2022/03/31 11:49:23;;;;;;;1.40;1.30;;;5.20;77.70;;;;;;4990357;28;20037;-60
2022/03/31 11:52:00;;;;;;;1.60;1.50;;;5.20;77.80;;;;;;5020058;28;20030;-59
2022/03/31 11:54:28;;;;;;;1.58;1.40;;;5.30;77.90;;;;;;5006311;28;20384;-63
2022/03/31 11:57:08;;;;;;;1.50;1.40;;;5.20;77.90;;;;;;5008591;28;20030;-59
2022/03/31 11:59:35;;;;;;;1.40;1.30;;;5.20;78.10;;;;;;5008298;28;20053;-60
2022/03/31 12:02:01;;;;;;;1.40;1.30;;;5.20;78.20;;;;;;5006975;28;20401;-63
2022/03/31 12:04:30;;;;;;;1.80;1.70;;;5.20;78.30;;;;;;5008687;28;20029;-63
2022/03/31 12:06:57;;;;;;;1.38;1.27;;;5.20;78.10;;;;;;5002175;28;20136;-60
2022/03/31 12:09:27;;;;;;;1.15;1.15;;;5.10;78.00;;;;;;5007918;28;20498;-59
2022/03/31 12:11:54;;;;;;;1.77;1.48;;;5.10;78.00;;;;;;5007995;28;20060;-59
2022/03/31 12:14:19;;;;;;;1.50;1.40;;;5.10;78.00;;;;;;5008202;28;20036;-60
2022/03/31 12:16:49;;;;;;;1.30;1.20;;;5.10;78.10;;;;;;5006268;28;20129;-60
2022/03/31 12:19:15;;;;;;;1.40;1.30;;;5.10;78.30;;;;;;5003416;28;20076;-60
2022/03/31 12:22:09;;;;;;;1.60;1.50;;;5.10;78.30;;;;;;5011167;28;20544;-63
2022/03/31 12:24:49;;;;;;;1.50;1.40;;;5.00;78.30;;;;;;5000318;28;20137;-60
2022/03/31 12:27:18;;;;;;;1.40;1.30;;;5.00;78.10;;;;;;5005614;28;20014;-63
2022/03/31 12:29:45;;;;;;;1.60;1.50;;;5.00;78.30;;;;;;5010751;28;20033;-63
2022/03/31 12:32:14;;;;;;;1.40;1.30;;;5.00;78.40;;;;;;5010407;28;20117;-59
2022/03/31 12:34:53;;;;;;;1.60;1.30;;;5.00;78.30;;;;;;5009487;28;20149;-60
2022/03/31 12:37:30;;;;;;;1.30;1.20;;;5.00;78.40;;;;;;5008406;28;20030;-64
2022/03/31 12:39:56;;;;;;;1.35;1.25;;;5.00;78.50;;;;;;5008837;28;20060;-60
2022/03/31 12:42:23;;;;;;;1.10;1.10;;;5.00;78.50;;;;;;5009985;28;20075;-60
2022/03/31 12:44:48;;;;;;;1.60;1.50;;;5.00;78.40;;;;;;5010886;28;20533;-64
2022/03/31 12:47:24;;;;;;;1.63;1.52;;;5.00;78.30;;;;;;5010528;28;20062;-64
2022/03/31 12:49:50;;;;;;;1.13;1.13;;;5.00;78.30;;;;;;5010375;28;20065;-61
2022/03/31 12:52:19;;;;;;;1.27;1.17;;;5.00;78.20;;;;;;4998592;28;20216;-64
2022/03/31 12:54:51;;;;;;;1.20;1.10;;;5.00;78.10;;;;;;5011428;28;20080;-64
2022/03/31 12:57:24;;;;;;;1.42;1.20;;;5.00;78.10;;;;;;5010812;28;20030;-64
2022/03/31 13:00:12;;;;;;;1.60;1.35;;;5.00;78.00;;;;;;5038977;28;20042;-64
2022/03/31 13:02:38;;;;;;;1.40;1.30;;;5.00;78.10;;;;;;5008731;28;20076;-64
2022/03/31 13:05:06;;;;;;;1.48;1.38;;;5.00;78.00;;;;;;5011847;28;20080;-60